Time;durP1;ratioP1;P1;durP2;ratioP2;P2;SDS_P1;SDS_P2;PMS_P1;PMS_P2;Temp;Humidity;BMP_temperature;BMP_pressure;BME280_temperature;BME280_humidity;BME280_pressure;Samples;Min_cycle;Max_cycle;Signal;HPM_P1;HPM_P2
2023/12/09 00:02:10;;;;;;;46.55;23.42;;;;;;;;;;6250386;22;20003;-95
2023/12/09 00:04:36;;;;;;;47.03;22.55;;;;;;;;;;6250821;22;20382;-93
2023/12/09 00:07:02;;;;;;;48.00;22.95;;;;;;;;;;6250679;22;20004;-95
2023/12/09 00:09:29;;;;;;;44.08;22.27;;;;;;;;;;6251063;22;20007;-94
2023/12/09 00:11:56;;;;;;;44.40;22.35;;;;;;;;;;6250906;22;20003;-94
2023/12/09 00:14:25;;;;;;;47.10;23.73;;;;;;;;;;6252306;22;20010;-94
2023/12/09 00:16:54;;;;;;;49.95;23.25;;;;;;;;;;6252445;22;20000;-93
2023/12/09 00:19:20;;;;;;;47.42;22.45;;;;;;;;;;6252369;22;20022;-96
2023/12/09 00:21:47;;;;;;;44.67;20.83;;;;;;;;;;6252704;22;20003;-93
2023/12/09 00:24:13;;;;;;;43.13;22.20;;;;;;;;;;6250418;22;20469;-95
2023/12/09 00:26:39;;;;;;;45.97;21.60;;;;;;;;;;6252458;22;20010;-94
2023/12/09 00:29:05;;;;;;;44.30;22.23;;;;;;;;;;6252844;22;20050;-94
2023/12/09 00:31:31;;;;;;;43.15;22.38;;;;;;;;;;6252556;22;20058;-94
2023/12/09 00:33:57;;;;;;;45.08;22.02;;;;;;;;;;6252638;22;20050;-94
2023/12/09 00:36:26;;;;;;;44.70;22.33;;;;;;;;;;6252628;22;20007;-92
2023/12/09 00:38:52;;;;;;;46.65;23.50;;;;;;;;;;6252871;22;20070;-95
2023/12/09 00:41:19;;;;;;;47.72;23.35;;;;;;;;;;6252789;22;20007;-95
2023/12/09 00:43:45;;;;;;;46.85;24.42;;;;;;;;;;6252667;22;20030;-94
2023/12/09 00:46:11;;;;;;;44.30;22.58;;;;;;;;;;6261420;22;20004;-92
2023/12/09 00:48:40;;;;;;;43.38;22.58;;;;;;;;;;6267229;22;20487;-93
2023/12/09 00:51:06;;;;;;;46.50;24.08;;;;;;;;;;6254786;22;20000;-93
2023/12/09 00:53:33;;;;;;;45.75;23.50;;;;;;;;;;6252471;22;20008;-93
2023/12/09 00:55:59;;;;;;;43.50;22.58;;;;;;;;;;6252014;22;20000;-93
2023/12/09 00:58:28;;;;;;;41.55;20.83;;;;;;;;;;6252192;22;20008;-92
2023/12/09 01:00:58;;;;;;;44.20;21.77;;;;;;;;;;6251992;22;20012;-93
2023/12/09 01:03:24;;;;;;;46.75;22.67;;;;;;;;;;6227049;22;20019;-93
2023/12/09 01:05:50;;;;;;;44.83;22.35;;;;;;;;;;6251898;22;20008;-93
2023/12/09 01:08:16;;;;;;;46.00;22.77;;;;;;;;;;6252385;22;20015;-94
2023/12/09 01:10:43;;;;;;;45.13;21.77;;;;;;;;;;6252026;22;20004;-92
2023/12/09 01:13:09;;;;;;;45.53;21.95;;;;;;;;;;6252381;22;20454;-94
2023/12/09 01:15:35;;;;;;;47.38;23.00;;;;;;;;;;6252325;22;19996;-93
2023/12/09 01:18:02;;;;;;;42.65;23.45;;;;;;;;;;6252248;22;20042;-92
2023/12/09 01:20:28;;;;;;;40.47;20.80;;;;;;;;;;6252027;22;20090;-94
2023/12/09 01:22:55;;;;;;;44.55;22.20;;;;;;;;;;6251891;22;20026;-94
2023/12/09 01:25:39;;;;;;;41.92;22.10;;;;;;;;;;6251955;22;20003;-93
2023/12/09 01:28:08;;;;;;;43.53;21.35;;;;;;;;;;6252060;22;20053;-93
2023/12/09 01:30:34;;;;;;;42.03;21.67;;;;;;;;;;6251729;22;20007;-92
2023/12/09 01:33:00;;;;;;;42.08;21.15;;;;;;;;;;6251951;22;20417;-92
2023/12/09 01:35:30;;;;;;;45.83;22.92;;;;;;;;;;6251954;22;20022;-93
2023/12/09 01:37:56;;;;;;;41.78;20.65;;;;;;;;;;6251796;22;20004;-92
2023/12/09 01:40:22;;;;;;;47.38;23.77;;;;;;;;;;6251782;22;20018;-93
2023/12/09 01:42:48;;;;;;;41.83;20.73;;;;;;;;;;6251646;22;20451;-93
2023/12/09 01:45:15;;;;;;;40.25;20.83;;;;;;;;;;6251854;22;20011;-93
2023/12/09 01:47:41;;;;;;;41.53;21.02;;;;;;;;;;6251365;22;20118;-94
2023/12/09 01:50:11;;;;;;;41.30;21.58;;;;;;;;;;6251672;22;20011;-93
2023/12/09 01:52:37;;;;;;;40.90;19.73;;;;;;;;;;6251968;22;20010;-93
2023/12/09 01:55:04;;;;;;;38.97;20.65;;;;;;;;;;6251874;22;20000;-93
2023/12/09 01:57:30;;;;;;;36.80;20.45;;;;;;;;;;6252000;22;20101;-93
2023/12/09 01:59:56;;;;;;;43.28;21.90;;;;;;;;;;6251578;22;20047;-93
2023/12/09 02:02:22;;;;;;;39.25;19.98;;;;;;;;;;6251575;22;20425;-93
2023/12/09 02:04:50;;;;;;;34.20;19.25;;;;;;;;;;6251702;22;20003;-92
2023/12/09 02:07:18;;;;;;;40.00;20.50;;;;;;;;;;6251434;22;20004;-95
2023/12/09 02:09:45;;;;;;;34.80;19.50;;;;;;;;;;6251461;22;20023;-94
2023/12/09 02:12:26;;;;;;;41.33;19.65;;;;;;;;;;6251198;22;20075;-92
2023/12/09 02:14:59;;;;;;;40.75;22.67;;;;;;;;;;6251550;22;20022;-93
2023/12/09 02:17:32;;;;;;;42.05;19.65;;;;;;;;;;6251762;22;20060;-94
2023/12/09 02:20:02;;;;;;;39.47;19.77;;;;;;;;;;6251733;22;20090;-92
2023/12/09 02:22:28;;;;;;;35.53;19.42;;;;;;;;;;6251887;22;20453;-93
2023/12/09 02:24:54;;;;;;;35.63;18.67;;;;;;;;;;6252042;22;20429;-93
2023/12/09 02:27:33;;;;;;;37.20;19.50;;;;;;;;;;6259657;22;20015;-91
2023/12/09 02:30:12;;;;;;;35.03;18.98;;;;;;;;;;6268940;22;20478;-93
2023/12/09 02:32:42;;;;;;;36.95;19.40;;;;;;;;;;6253124;22;20035;-92
2023/12/09 02:35:09;;;;;;;38.60;19.02;;;;;;;;;;6251216;22;20092;-93
2023/12/09 02:37:38;;;;;;;35.22;18.70;;;;;;;;;;6251279;22;20331;-92
2023/12/09 02:40:23;;;;;;;39.25;19.05;;;;;;;;;;6251557;22;20391;-91
2023/12/09 02:42:50;;;;;;;36.97;18.90;;;;;;;;;;6251402;22;20004;-94
2023/12/09 02:45:19;;;;;;;35.17;18.48;;;;;;;;;;6251407;22;20022;-94
2023/12/09 02:47:47;;;;;;;38.65;19.40;;;;;;;;;;6251313;22;20077;-94
2023/12/09 02:50:16;;;;;;;40.17;19.02;;;;;;;;;;6251215;22;20003;-93
2023/12/09 02:52:42;;;;;;;38.83;20.98;;;;;;;;;;6250981;22;20004;-93
2023/12/09 02:55:08;;;;;;;54.50;25.30;;;;;;;;;;6250617;22;20011;-93
2023/12/09 02:57:35;;;;;;;46.45;22.70;;;;;;;;;;6250775;22;20011;-93
2023/12/09 03:00:10;;;;;;;47.83;24.65;;;;;;;;;;6251070;22;20015;-93
2023/12/09 03:02:43;;;;;;;52.78;26.45;;;;;;;;;;6251130;22;20011;-93
2023/12/09 03:05:13;;;;;;;47.03;22.33;;;;;;;;;;6269634;22;20024;-91
2023/12/09 03:07:39;;;;;;;50.13;25.35;;;;;;;;;;6255965;22;20010;-93
2023/12/09 03:10:05;;;;;;;41.13;21.38;;;;;;;;;;6251094;22;20007;-94
2023/12/09 03:12:31;;;;;;;48.42;25.20;;;;;;;;;;6251126;22;20003;-93
2023/12/09 03:14:58;;;;;;;43.13;22.05;;;;;;;;;;6251485;22;20011;-93
2023/12/09 03:17:24;;;;;;;40.25;19.98;;;;;;;;;;6251344;22;19999;-93
2023/12/09 03:19:51;;;;;;;43.20;20.63;;;;;;;;;;6251045;22;20086;-94
2023/12/09 03:22:17;;;;;;;39.47;20.58;;;;;;;;;;6250763;22;20140;-94
2023/12/09 03:24:47;;;;;;;42.78;22.85;;;;;;;;;;6251164;22;20137;-93
2023/12/09 03:27:17;;;;;;;49.47;24.23;;;;;;;;;;6250904;22;20523;-92
2023/12/09 03:29:43;;;;;;;42.70;21.88;;;;;;;;;;6250936;22;20006;-93
2023/12/09 03:32:09;;;;;;;41.55;20.73;;;;;;;;;;6251161;22;20004;-94
2023/12/09 03:34:35;;;;;;;42.83;21.77;;;;;;;;;;6250999;22;20557;-92
2023/12/09 03:37:01;;;;;;;49.80;23.58;;;;;;;;;;6250925;22;20000;-94
2023/12/09 03:39:30;;;;;;;48.72;23.20;;;;;;;;;;6250903;22;20016;-92
2023/12/09 03:41:59;;;;;;;42.97;22.15;;;;;;;;;;6250817;22;20432;-93
2023/12/09 03:44:26;;;;;;;44.88;23.48;;;;;;;;;;6251107;22;20007;-93
2023/12/09 03:46:52;;;;;;;44.65;21.95;;;;;;;;;;6250820;22;20011;-93
2023/12/09 03:49:18;;;;;;;46.92;22.60;;;;;;;;;;6252858;22;20309;-94
2023/12/09 03:51:53;;;;;;;44.30;22.00;;;;;;;;;;6253234;22;20008;-93
2023/12/09 03:54:19;;;;;;;44.92;21.42;;;;;;;;;;6253302;22;20032;-94
2023/12/09 03:56:45;;;;;;;44.35;21.95;;;;;;;;;;6253227;22;20008;-93
2023/12/09 03:59:11;;;;;;;43.55;21.80;;;;;;;;;;6253119;22;20425;-93
2023/12/09 04:01:45;;;;;;;46.20;22.95;;;;;;;;;;6253009;22;20428;-93
2023/12/09 04:04:12;;;;;;;56.90;26.23;;;;;;;;;;6253284;22;20098;-93
2023/12/09 04:06:38;;;;;;;47.35;23.02;;;;;;;;;;6252785;22;20033;-93
2023/12/09 04:09:04;;;;;;;39.60;20.83;;;;;;;;;;6264245;22;19994;-91
2023/12/09 04:11:30;;;;;;;40.90;21.02;;;;;;;;;;6270013;22;20004;-94
2023/12/09 04:13:56;;;;;;;41.97;21.67;;;;;;;;;;6253944;22;20061;-93
2023/12/09 04:16:23;;;;;;;45.95;22.30;;;;;;;;;;6252841;22;20000;-93
2023/12/09 04:18:50;;;;;;;42.72;20.25;;;;;;;;;;6252561;22;20012;-92
2023/12/09 04:21:17;;;;;;;43.30;21.45;;;;;;;;;;6252888;22;20008;-94
2023/12/09 04:23:44;;;;;;;44.47;21.92;;;;;;;;;;6252576;22;20006;-93
2023/12/09 04:26:13;;;;;;;41.35;21.40;;;;;;;;;;6252481;22;20011;-91
2023/12/09 04:28:40;;;;;;;44.35;21.83;;;;;;;;;;6252630;22;20004;-92
2023/12/09 04:31:06;;;;;;;49.72;22.23;;;;;;;;;;6252555;22;20082;-93
2023/12/09 04:33:45;;;;;;;44.45;21.75;;;;;;;;;;6252675;22;20332;-92
2023/12/09 04:36:11;;;;;;;49.00;23.05;;;;;;;;;;6268224;22;20018;-90
2023/12/09 04:38:38;;;;;;;46.08;22.83;;;;;;;;;;6263699;22;20004;-92
2023/12/09 04:41:04;;;;;;;44.60;21.88;;;;;;;;;;6253351;22;20004;-93
2023/12/09 04:43:30;;;;;;;47.25;23.95;;;;;;;;;;6252685;22;20004;-93
2023/12/09 04:45:56;;;;;;;47.63;23.02;;;;;;;;;;6252595;22;20027;-92
2023/12/09 04:48:23;;;;;;;49.30;23.75;;;;;;;;;;6246894;23;20043;-93
2023/12/09 04:50:49;;;;;;;49.55;24.63;;;;;;;;;;6247297;23;20000;-93
2023/12/09 04:53:18;;;;;;;45.55;22.33;;;;;;;;;;6247290;23;20289;-93
2023/12/09 04:55:45;;;;;;;47.78;23.60;;;;;;;;;;6247870;23;20008;-94
2023/12/09 04:58:14;;;;;;;43.72;21.98;;;;;;;;;;6246806;23;20032;-94
2023/12/09 05:00:43;;;;;;;45.05;21.25;;;;;;;;;;6246839;23;20016;-92
2023/12/09 05:03:18;;;;;;;45.72;22.30;;;;;;;;;;6247091;23;20000;-93
2023/12/09 05:05:44;;;;;;;46.92;23.05;;;;;;;;;;6247092;23;20088;-93
2023/12/09 05:08:17;;;;;;;50.15;22.95;;;;;;;;;;6247146;23;20026;-93
2023/12/09 05:10:43;;;;;;;45.25;21.98;;;;;;;;;;6247209;23;20000;-93
2023/12/09 05:13:13;;;;;;;44.00;21.55;;;;;;;;;;6247082;23;20008;-92
2023/12/09 05:15:39;;;;;;;43.45;22.35;;;;;;;;;;6246706;23;20325;-93
2023/12/09 05:18:11;;;;;;;45.30;22.48;;;;;;;;;;6246709;23;20524;-94
2023/12/09 05:20:37;;;;;;;47.72;23.35;;;;;;;;;;6247002;23;20019;-95
2023/12/09 05:23:12;;;;;;;49.40;23.23;;;;;;;;;;6247195;23;20022;-92
2023/12/09 05:25:41;;;;;;;47.33;23.17;;;;;;;;;;6247239;23;20004;-93
2023/12/09 05:28:07;;;;;;;43.67;21.60;;;;;;;;;;6247122;23;20004;-93
2023/12/09 05:30:33;;;;;;;49.40;22.90;;;;;;;;;;6247158;23;20015;-93
2023/12/09 05:33:03;;;;;;;48.00;24.27;;;;;;;;;;6247116;23;20083;-94
2023/12/09 05:35:29;;;;;;;55.03;26.70;;;;;;;;;;6247180;23;20004;-93
2023/12/09 05:37:55;;;;;;;44.38;23.48;;;;;;;;;;6246992;23;20027;-93
2023/12/09 05:40:21;;;;;;;47.90;23.10;;;;;;;;;;6246579;23;20012;-93
2023/12/09 05:42:48;;;;;;;48.15;22.42;;;;;;;;;;6247456;23;20000;-91
2023/12/09 05:45:14;;;;;;;47.50;23.85;;;;;;;;;;6247023;23;20010;-93
2023/12/09 05:47:40;;;;;;;46.17;24.23;;;;;;;;;;6246755;23;20016;-93
2023/12/09 05:50:07;;;;;;;43.50;22.63;;;;;;;;;;6259399;22;20015;-92
2023/12/09 05:52:33;;;;;;;45.55;23.75;;;;;;;;;;6264006;22;20008;-93
2023/12/09 05:54:59;;;;;;;42.13;21.75;;;;;;;;;;6248673;23;20011;-93
2023/12/09 05:57:28;;;;;;;47.63;23.20;;;;;;;;;;6246758;23;20007;-93
2023/12/09 05:59:58;;;;;;;45.70;23.25;;;;;;;;;;6246471;23;20012;-93
2023/12/09 06:02:36;;;;;;;47.60;24.63;;;;;;;;;;6246579;23;20000;-92
2023/12/09 06:05:03;;;;;;;48.88;23.33;;;;;;;;;;6246935;23;20011;-93
2023/12/09 06:07:29;;;;;;;46.85;23.25;;;;;;;;;;6253452;23;20004;-89
2023/12/09 06:09:55;;;;;;;48.83;23.30;;;;;;;;;;6264815;23;20008;-94
2023/12/09 06:12:25;;;;;;;50.25;23.30;;;;;;;;;;6248954;23;20007;-95
2023/12/09 06:14:51;;;;;;;52.08;25.52;;;;;;;;;;6246559;23;20008;-93
2023/12/09 06:17:18;;;;;;;51.35;24.77;;;;;;;;;;6247243;23;20004;-94
2023/12/09 06:19:44;;;;;;;49.50;23.90;;;;;;;;;;6247301;23;20095;-94
2023/12/09 06:22:12;;;;;;;45.55;22.73;;;;;;;;;;6245597;23;20020;-94
2023/12/09 06:24:38;;;;;;;49.70;23.80;;;;;;;;;;6246565;23;20008;-95
2023/12/09 06:27:05;;;;;;;47.72;23.67;;;;;;;;;;6247031;23;20004;-93
2023/12/09 06:29:33;;;;;;;56.90;27.38;;;;;;;;;;6246636;23;20004;-94
2023/12/09 06:31:59;;;;;;;67.55;29.77;;;;;;;;;;6246188;23;20444;-93
2023/12/09 06:34:25;;;;;;;56.22;26.33;;;;;;;;;;6246572;23;20061;-94
2023/12/09 06:36:54;;;;;;;62.50;27.35;;;;;;;;;;6246211;23;20004;-94
2023/12/09 06:39:26;;;;;;;59.92;28.60;;;;;;;;;;6246122;23;20012;-93
2023/12/09 06:41:55;;;;;;;55.67;26.35;;;;;;;;;;6246305;23;20009;-92
2023/12/09 06:44:25;;;;;;;73.28;32.35;;;;;;;;;;6245692;23;20001;-91
2023/12/09 06:46:58;;;;;;;52.28;24.65;;;;;;;;;;6250688;22;20030;-93
2023/12/09 06:49:25;;;;;;;57.10;27.30;;;;;;;;;;6251447;22;20000;-93
2023/12/09 06:51:51;;;;;;;48.88;23.90;;;;;;;;;;6251196;22;20408;-92
2023/12/09 06:54:20;;;;;;;51.97;25.27;;;;;;;;;;6251321;22;20004;-93
2023/12/09 06:56:46;;;;;;;48.47;24.75;;;;;;;;;;6253069;22;20069;-93
2023/12/09 06:59:12;;;;;;;51.25;24.00;;;;;;;;;;6252629;22;20008;-95
2023/12/09 07:01:38;;;;;;;48.45;23.75;;;;;;;;;;6251238;22;20007;-93
2023/12/09 07:04:09;;;;;;;53.15;24.10;;;;;;;;;;6251852;22;20000;-93
2023/12/09 07:06:35;;;;;;;54.00;24.52;;;;;;;;;;6250111;22;20008;-94
2023/12/09 07:09:02;;;;;;;46.70;24.05;;;;;;;;;;6251446;22;20008;-95
2023/12/09 07:11:29;;;;;;;47.17;24.25;;;;;;;;;;6251127;22;20000;-93
2023/12/09 07:14:04;;;;;;;46.65;23.55;;;;;;;;;;6250995;22;20003;-94
2023/12/09 07:16:30;;;;;;;51.65;25.35;;;;;;;;;;6251596;22;20050;-93
2023/12/09 07:19:15;;;;;;;52.47;25.90;;;;;;;;;;6252817;22;20007;-92
2023/12/09 07:21:41;;;;;;;55.30;25.85;;;;;;;;;;6252831;22;20371;-96
2023/12/09 07:24:08;;;;;;;51.05;26.02;;;;;;;;;;6253847;22;20000;-94
2023/12/09 07:26:34;;;;;;;52.33;24.95;;;;;;;;;;6252907;22;20030;-92
2023/12/09 07:29:05;;;;;;;47.38;23.48;;;;;;;;;;6253629;22;19996;-96
2023/12/09 07:31:33;;;;;;;50.58;24.55;;;;;;;;;;6284199;22;20014;-93
2023/12/09 07:33:59;;;;;;;51.17;25.42;;;;;;;;;;6275109;22;20004;-90
2023/12/09 07:36:26;;;;;;;47.05;24.15;;;;;;;;;;6265759;22;20007;-95
2023/12/09 07:38:52;;;;;;;47.75;24.67;;;;;;;;;;6254833;22;20137;-93
2023/12/09 07:41:21;;;;;;;52.25;27.40;;;;;;;;;;6268287;22;20023;-92
2023/12/09 07:43:55;;;;;;;49.53;24.85;;;;;;;;;;6263527;22;20015;-95
2023/12/09 07:46:40;;;;;;;53.78;26.50;;;;;;;;;;6253666;22;20007;-96
2023/12/09 07:49:13;;;;;;;50.80;25.48;;;;;;;;;;6221719;23;20019;-94
2023/12/09 07:51:39;;;;;;;51.03;25.25;;;;;;;;;;6222343;23;20000;-93
2023/12/09 07:54:11;;;;;;;48.63;25.80;;;;;;;;;;6220222;23;20012;-92
2023/12/09 07:56:44;;;;;;;52.28;27.35;;;;;;;;;;6220502;23;20000;-92
2023/12/09 07:59:10;;;;;;;55.13;27.30;;;;;;;;;;6220175;23;20012;-91
2023/12/09 08:01:36;;;;;;;54.97;26.58;;;;;;;;;;6220193;23;20046;-92
2023/12/09 08:04:02;;;;;;;53.65;27.15;;;;;;;;;;6221022;23;20000;-95
2023/12/09 08:06:28;;;;;;;52.33;25.88;;;;;;;;;;6220736;23;20054;-95
2023/12/09 08:08:57;;;;;;;55.17;27.25;;;;;;;;;;6220320;23;20012;-92
2023/12/09 08:14:04;;;;;;;53.70;25.92;;;;;;;;;;6223086;22;20087;-95
2023/12/09 08:16:33;;;;;;;51.90;25.92;;;;;;;;;;6215809;23;20492;-94
2023/12/09 08:19:09;;;;;;;46.28;23.58;;;;;;;;;;6215520;23;20012;-92
2023/12/09 08:21:36;;;;;;;52.33;24.30;;;;;;;;;;6215771;23;20032;-91
2023/12/09 08:24:05;;;;;;;54.08;26.45;;;;;;;;;;6183776;23;20029;-92
2023/12/09 08:26:44;;;;;;;49.47;26.48;;;;;;;;;;6159505;23;20009;-91
2023/12/09 08:29:20;;;;;;;55.13;25.63;;;;;;;;;;6125108;23;20037;-92
2023/12/09 08:31:49;;;;;;;51.33;26.80;;;;;;;;;;6101935;23;20526;-91
2023/12/09 08:34:15;;;;;;;51.90;25.08;;;;;;;;;;6103042;23;20006;-95
2023/12/09 08:36:41;;;;;;;50.10;26.33;;;;;;;;;;6107203;23;20451;-96
2023/12/09 08:39:10;;;;;;;47.47;24.63;;;;;;;;;;6103496;23;20093;-95
2023/12/09 08:41:37;;;;;;;43.75;22.80;;;;;;;;;;6102220;23;20002;-95
2023/12/09 08:44:04;;;;;;;48.38;23.95;;;;;;;;;;6103583;23;20436;-96
2023/12/09 08:46:30;;;;;;;46.83;23.45;;;;;;;;;;6103601;23;20006;-96
2023/12/09 08:49:10;;;;;;;49.00;23.60;;;;;;;;;;6102372;23;20006;-92
2023/12/09 08:54:38;;;;;;;60.55;27.25;;;;;;;;;;6147059;23;20427;-93
2023/12/09 08:57:04;;;;;;;49.10;25.08;;;;;;;;;;6185450;23;20019;-92
2023/12/09 08:59:30;;;;;;;46.17;24.30;;;;;;;;;;6195070;23;20320;-93
2023/12/09 09:01:56;;;;;;;45.92;24.38;;;;;;;;;;6218209;23;20083;-95
2023/12/09 09:04:22;;;;;;;48.17;26.63;;;;;;;;;;6216314;23;20084;-95
2023/12/09 09:06:51;;;;;;;47.97;26.17;;;;;;;;;;6217262;23;20035;-92
2023/12/09 09:09:20;;;;;;;45.97;25.38;;;;;;;;;;6219016;23;20142;-94
2023/12/09 09:11:53;;;;;;;45.72;23.38;;;;;;;;;;6218250;23;20005;-93
2023/12/09 09:14:19;;;;;;;50.60;26.15;;;;;;;;;;6223834;23;20016;-96
2023/12/09 09:16:45;;;;;;;49.42;25.65;;;;;;;;;;6236469;23;19988;-88
2023/12/09 09:22:22;;;;;;;53.90;28.70;;;;;;;;;;6222373;23;20024;-91
2023/12/09 09:25:04;;;;;;;;;;;;;;;;;;;;;
2023/12/09 09:27:33;;;;;;;53.33;27.83;;;;;;;;;;6218792;23;20079;-94
2023/12/09 09:30:03;;;;;;;49.78;25.17;;;;;;;;;;6191717;23;20017;-92
2023/12/09 09:33:10;;;;;;;46.65;23.13;;;;;;;;;;6193409;23;20099;-94
2023/12/09 09:35:29;;;;;;;45.25;22.13;;;;;;;;;;6213679;23;20085;-93
2023/12/09 09:37:55;;;;;;;46.90;23.05;;;;;;;;;;6192045;23;20008;-93
2023/12/09 09:40:21;;;;;;;44.05;23.20;;;;;;;;;;6190891;23;20012;-94
2023/12/09 09:42:56;;;;;;;47.28;24.67;;;;;;;;;;6191689;23;20431;-92
2023/12/09 09:45:23;;;;;;;45.05;23.08;;;;;;;;;;6190990;23;20008;-90
2023/12/09 09:47:50;;;;;;;39.92;21.65;;;;;;;;;;6190646;23;20015;-90
2023/12/09 09:50:23;;;;;;;45.15;22.85;;;;;;;;;;6191515;23;20108;-94
2023/12/09 09:52:56;;;;;;;42.35;22.85;;;;;;;;;;6191473;23;20012;-93
2023/12/09 09:55:23;;;;;;;44.00;22.00;;;;;;;;;;6190088;23;20085;-94
2023/12/09 09:57:58;;;;;;;42.30;21.95;;;;;;;;;;6193781;23;20011;-95
2023/12/09 10:00:26;;;;;;;46.40;22.40;;;;;;;;;;6192632;23;20016;-91
2023/12/09 10:02:54;;;;;;;46.35;23.67;;;;;;;;;;6192425;23;20083;-91
2023/12/09 10:05:20;;;;;;;45.60;22.75;;;;;;;;;;6191656;23;20015;-90
2023/12/09 10:07:47;;;;;;;47.95;23.40;;;;;;;;;;6191505;23;20005;-90
2023/12/09 10:10:16;;;;;;;48.78;23.75;;;;;;;;;;6192644;23;20005;-94
2023/12/09 10:12:42;;;;;;;48.35;23.90;;;;;;;;;;6193891;23;20013;-94
2023/12/09 10:15:28;;;;;;;48.58;22.92;;;;;;;;;;6196019;23;20008;-92
2023/12/09 10:18:04;;;;;;;45.30;22.60;;;;;;;;;;6192175;23;20362;-93
2023/12/09 10:20:33;;;;;;;47.40;23.38;;;;;;;;;;6217158;23;20020;-94
2023/12/09 10:29:08;;;;;;;43.83;22.33;;;;;;;;;;6217901;23;20051;-94
2023/12/09 10:31:37;;;;;;;51.03;25.83;;;;;;;;;;6216791;23;20000;-95
2023/12/09 10:34:03;;;;;;;50.35;24.83;;;;;;;;;;6216849;23;20031;-92
2023/12/09 10:36:37;;;;;;;46.38;22.92;;;;;;;;;;6219190;23;20473;-96
2023/12/09 10:39:08;;;;;;;44.88;22.83;;;;;;;;;;6218444;23;20083;-95
2023/12/09 10:41:34;;;;;;;41.17;22.77;;;;;;;;;;6217525;23;20001;-93
2023/12/09 10:44:04;;;;;;;44.47;21.85;;;;;;;;;;6216748;23;20442;-93
2023/12/09 10:46:30;;;;;;;44.55;23.83;;;;;;;;;;6216376;23;20012;-91
2023/12/09 10:48:56;;;;;;;47.67;23.60;;;;;;;;;;6216218;23;20445;-94
2023/12/09 10:51:23;;;;;;;52.10;26.45;;;;;;;;;;6217494;23;20325;-92
2023/12/09 10:53:49;;;;;;;39.88;21.02;;;;;;;;;;6216037;23;20095;-95
2023/12/09 10:56:15;;;;;;;38.45;20.40;;;;;;;;;;6215835;23;20326;-95
2023/12/09 10:58:45;;;;;;;42.10;22.42;;;;;;;;;;6216896;23;20067;-92
2023/12/09 11:01:12;;;;;;;52.55;27.20;;;;;;;;;;6216631;23;20376;-95
2023/12/09 11:03:39;;;;;;;42.78;22.58;;;;;;;;;;6219326;23;20008;-94
2023/12/09 11:06:11;;;;;;;45.90;23.38;;;;;;;;;;6229125;22;20068;-91
2023/12/09 11:08:38;;;;;;;40.53;21.42;;;;;;;;;;6236502;22;20063;-96
2023/12/09 11:11:08;;;;;;;39.75;21.33;;;;;;;;;;6218319;23;20083;-95
2023/12/09 11:17:02;;;;;;;45.87;23.53;;;;;;;;;;6220676;23;20453;-94
2023/12/09 11:19:50;;;;;;;52.83;25.02;;;;;;;;;;6213154;23;20263;-96
2023/12/09 11:22:32;;;;;;;41.95;21.02;;;;;;;;;;6218638;23;20039;-94
2023/12/09 11:24:58;;;;;;;45.05;21.52;;;;;;;;;;6190012;23;20004;-95
2023/12/09 11:27:45;;;;;;;42.53;21.67;;;;;;;;;;6190602;23;20001;-95
2023/12/09 11:31:11;;;;;;;39.40;21.88;;;;;;;;;;6194917;23;20083;-94
2023/12/09 11:33:19;;;;;;;39.90;21.25;;;;;;;;;;6202507;23;20481;-92
2023/12/09 11:35:46;;;;;;;41.05;21.30;;;;;;;;;;6189984;23;20461;-92
2023/12/09 11:38:19;;;;;;;39.85;20.73;;;;;;;;;;6190314;23;20032;-94
2023/12/09 11:40:45;;;;;;;;;;;;;;;;;;6192109;23;20040;-91
2023/12/09 11:43:12;;;;;;;38.28;19.77;;;;;;;;;;6214698;23;19904;-95
2023/12/09 11:45:38;;;;;;;40.13;20.13;;;;;;;;;;6192923;23;20434;-93
2023/12/09 11:48:30;;;;;;;37.88;20.08;;;;;;;;;;6193930;23;20004;-96
2023/12/09 11:51:03;;;;;;;41.28;21.35;;;;;;;;;;6192486;23;20008;-92
2023/12/09 11:53:29;;;;;;;45.57;23.23;;;;;;;;;;6203164;23;20011;-92
2023/12/09 11:59:00;;;;;;;56.13;24.73;;;;;;;;;;6266817;22;20022;-91
2023/12/09 12:04:33;;;;;;;41.72;20.80;;;;;;;;;;6255834;22;20127;-93
2023/12/09 12:06:59;;;;;;;42.38;21.08;;;;;;;;;;6223211;23;20007;-94
2023/12/09 12:09:27;;;;;;;41.28;22.50;;;;;;;;;;6252446;23;20062;-94
2023/12/09 12:11:53;;;;;;;40.22;22.00;;;;;;;;;;6223539;23;20000;-93
2023/12/09 12:14:23;;;;;;;41.53;22.48;;;;;;;;;;6225792;23;20008;-92
2023/12/09 12:16:55;;;;;;;42.35;23.13;;;;;;;;;;6223591;23;20049;-93
2023/12/09 12:19:43;;;;;;;41.70;22.05;;;;;;;;;;6197755;23;20008;-92
2023/12/09 12:22:09;;;;;;;38.40;21.60;;;;;;;;;;6224755;23;20438;-92
2023/12/09 12:24:42;;;;;;;39.97;21.35;;;;;;;;;;6224913;23;20058;-93
2023/12/09 12:27:11;;;;;;;42.67;23.23;;;;;;;;;;6225281;23;20062;-93
2023/12/09 12:29:59;;;;;;;39.90;21.40;;;;;;;;;;6224481;23;20050;-95
2023/12/09 12:32:32;;;;;;;44.88;21.65;;;;;;;;;;6226187;23;20011;-93
2023/12/09 12:37:46;;;;;;;41.55;21.48;;;;;;;;;;6253055;23;19905;-93
2023/12/09 12:40:13;;;;;;;40.00;21.92;;;;;;;;;;6252188;23;20045;-93
2023/12/09 12:42:55;;;;;;;41.65;21.80;;;;;;;;;;6224868;23;20084;-92
2023/12/09 12:45:25;;;;;;;43.75;22.67;;;;;;;;;;6224464;23;20470;-92
2023/12/09 12:47:52;;;;;;;41.83;22.58;;;;;;;;;;6225110;22;20315;-93
2023/12/09 12:50:21;;;;;;;43.05;22.38;;;;;;;;;;6224821;23;20004;-93
2023/12/09 12:53:06;;;;;;;42.10;21.92;;;;;;;;;;6198844;23;20075;-93
2023/12/09 12:55:38;;;;;;;44.13;21.65;;;;;;;;;;6240519;23;20028;-90
2023/12/09 12:58:24;;;;;;;46.38;24.40;;;;;;;;;;6256479;23;20006;-93
2023/12/09 13:00:52;;;;;;;40.13;22.55;;;;;;;;;;6224198;23;20012;-93
2023/12/09 13:03:18;;;;;;;46.63;23.20;;;;;;;;;;6226014;23;20015;-91
2023/12/09 13:05:44;;;;;;;42.22;23.95;;;;;;;;;;6227389;23;20004;-93
2023/12/09 13:08:11;;;;;;;51.28;26.50;;;;;;;;;;6224832;23;20007;-92
2023/12/09 13:10:37;;;;;;;43.28;22.52;;;;;;;;;;6225849;23;20036;-94
2023/12/09 13:13:05;;;;;;;70.82;35.50;;;;;;;;;;6227671;23;20016;-94
2023/12/09 13:15:31;;;;;;;45.35;25.48;;;;;;;;;;6227709;23;20007;-94
2023/12/09 13:18:13;;;;;;;40.25;22.08;;;;;;;;;;6226672;23;20027;-95
2023/12/09 13:20:58;;;;;;;44.30;23.92;;;;;;;;;;6203038;23;20016;-94
2023/12/09 13:23:27;;;;;;;43.85;22.42;;;;;;;;;;6252467;23;20012;-91
2023/12/09 13:25:56;;;;;;;45.80;25.02;;;;;;;;;;6223336;23;20008;-93
2023/12/09 13:29:07;;;;;;;46.58;24.73;;;;;;;;;;6225203;23;20000;-96
2023/12/09 13:31:32;;;;;;;47.65;23.63;;;;;;;;;;6253154;23;20505;-92
2023/12/09 13:33:58;;;;;;;44.88;23.00;;;;;;;;;;6223870;23;20046;-91
2023/12/09 13:36:30;;;;;;;42.42;22.30;;;;;;;;;;6225366;23;20015;-95
2023/12/09 13:38:58;;;;;;;45.72;23.35;;;;;;;;;;6201593;23;20007;-94
2023/12/09 13:44:34;;;;;;;44.05;23.80;;;;;;;;;;6201590;23;20063;-90
2023/12/09 13:47:00;;;;;;;47.15;24.85;;;;;;;;;;6220855;22;20019;-91
2023/12/09 13:49:32;;;;;;;48.25;25.88;;;;;;;;;;6246458;23;20058;-89
2023/12/09 13:51:58;;;;;;;46.92;24.27;;;;;;;;;;6246629;23;20417;-90
2023/12/09 13:54:30;;;;;;;49.92;25.80;;;;;;;;;;6246878;23;20442;-91
2023/12/09 13:56:56;;;;;;;49.85;24.85;;;;;;;;;;6247259;23;20027;-91
2023/12/09 13:59:38;;;;;;;;;;;;;;;;;;;;;
2023/12/09 14:02:14;;;;;;;53.92;26.70;;;;;;;;;;6249685;23;20083;-89
2023/12/09 14:04:41;;;;;;;55.33;28.45;;;;;;;;;;6247423;23;20106;-91
2023/12/09 14:07:07;;;;;;;52.20;27.35;;;;;;;;;;6248515;23;20418;-91
2023/12/09 14:09:34;;;;;;;55.35;28.35;;;;;;;;;;6247017;23;20113;-90
2023/12/09 14:12:00;;;;;;;53.58;26.27;;;;;;;;;;6247962;23;20334;-92
2023/12/09 14:14:32;;;;;;;51.22;26.75;;;;;;;;;;6249882;23;20410;-91
2023/12/09 14:16:59;;;;;;;64.85;29.20;;;;;;;;;;6248936;23;20008;-91
2023/12/09 14:19:25;;;;;;;57.42;28.95;;;;;;;;;;6249012;23;20008;-91
2023/12/09 14:22:02;;;;;;;57.03;27.52;;;;;;;;;;6246704;23;20012;-92
2023/12/09 14:24:28;;;;;;;57.53;30.40;;;;;;;;;;6225257;23;20011;-90
2023/12/09 14:26:57;;;;;;;70.25;32.28;;;;;;;;;;6248322;23;20004;-91
2023/12/09 14:29:35;;;;;;;64.45;30.23;;;;;;;;;;6248197;23;20015;-91
2023/12/09 14:32:04;;;;;;;63.22;30.20;;;;;;;;;;6246818;23;20489;-90
2023/12/09 14:34:30;;;;;;;58.30;30.02;;;;;;;;;;6249372;23;20004;-91
2023/12/09 14:37:00;;;;;;;58.75;30.60;;;;;;;;;;6249706;23;20011;-90
2023/12/09 14:39:27;;;;;;;62.70;31.50;;;;;;;;;;6247985;23;20072;-88
2023/12/09 14:41:56;;;;;;;72.93;35.50;;;;;;;;;;6249784;23;20004;-89
2023/12/09 14:44:31;;;;;;;64.55;32.55;;;;;;;;;;6248389;23;20445;-90
2023/12/09 14:47:03;;;;;;;63.38;32.55;;;;;;;;;;6248025;22;20012;-92
2023/12/09 14:49:32;;;;;;;74.35;32.50;;;;;;;;;;6247599;23;20008;-90
2023/12/09 14:52:01;;;;;;;69.07;32.22;;;;;;;;;;6248530;23;20000;-91
2023/12/09 14:54:28;;;;;;;69.47;32.92;;;;;;;;;;6249797;23;20004;-89
2023/12/09 14:56:55;;;;;;;74.63;34.38;;;;;;;;;;6246915;23;20008;-89
2023/12/09 14:59:24;;;;;;;71.43;33.60;;;;;;;;;;6246781;23;20015;-89
2023/12/09 15:01:53;;;;;;;62.58;32.97;;;;;;;;;;6246869;23;20015;-90